Time;durP1;ratioP1;P1;durP2;ratioP2;P2;SDS_P1;SDS_P2;PMS_P1;PMS_P2;Temp;Humidity;BMP_temperature;BMP_pressure;BME280_temperature;BME280_humidity;BME280_pressure;Samples;Min_cycle;Max_cycle;Signal;HPM_P1;HPM_P2
2023/08/16 00:00:37;;;;;;;6.40;3.60;;;;;;;21.39;100.00;100319.49;104999;1266;61306;-75
2023/08/16 00:03:04;;;;;;;5.00;3.80;;;;;;;21.36;100.00;100324.50;105355;1271;74544;-75
2023/08/16 00:05:32;;;;;;;5.80;3.70;;;;;;;21.34;100.00;100326.06;105490;1269;71198;-75
2023/08/16 00:07:59;;;;;;;5.00;4.50;;;;;;;21.31;100.00;100329.11;105364;1269;72635;-75
2023/08/16 00:10:26;;;;;;;6.20;4.20;;;;;;;21.29;100.00;100325.11;105730;1267;61077;-75
2023/08/16 00:12:53;;;;;;;5.80;3.90;;;;;;;21.27;100.00;100327.59;105686;1269;61382;-74
2023/08/16 00:15:19;;;;;;;5.60;4.20;;;;;;;21.25;100.00;100328.95;105325;1271;74779;-75
2023/08/16 00:17:47;;;;;;;9.50;3.90;;;;;;;21.24;100.00;100334.22;105352;1267;71255;-74
2023/08/16 00:20:15;;;;;;;5.60;3.90;;;;;;;21.22;100.00;100333.66;105378;1268;72640;-75
2023/08/16 00:22:42;;;;;;;6.40;4.00;;;;;;;21.19;100.00;100335.45;105857;1267;61277;-75
2023/08/16 00:25:09;;;;;;;5.00;3.80;;;;;;;21.16;100.00;100333.15;105677;1268;61284;-75
2023/08/16 00:27:36;;;;;;;5.90;4.20;;;;;;;21.12;100.00;100332.50;105383;1268;74545;-75
2023/08/16 00:30:04;;;;;;;5.90;3.90;;;;;;;21.07;100.00;100333.52;105640;1268;71103;-75
2023/08/16 00:32:31;;;;;;;6.30;4.10;;;;;;;21.04;100.00;100334.29;105979;1267;72729;-75
2023/08/16 00:34:57;;;;;;;5.80;3.90;;;;;;;21.01;100.00;100336.08;105457;1267;61395;-75
2023/08/16 00:37:24;;;;;;;4.40;4.10;;;;;;;20.99;100.00;100334.63;105528;1271;61131;-75
2023/08/16 00:39:51;;;;;;;5.70;3.70;;;;;;;20.97;100.00;100335.98;105009;1269;73551;-75
2023/08/16 00:42:18;;;;;;;4.30;3.90;;;;;;;20.96;100.00;100336.23;106094;1267;71019;-75
2023/08/16 00:44:45;;;;;;;5.60;3.80;;;;;;;20.96;100.00;100337.45;104946;1269;72507;-75
2023/08/16 00:47:12;;;;;;;5.30;3.80;;;;;;;20.96;100.00;100340.70;105756;1269;61259;-75
2023/08/16 00:49:40;;;;;;;6.60;4.30;;;;;;;20.94;100.00;100339.94;105332;1269;61290;-75
2023/08/16 00:52:06;;;;;;;4.60;3.90;;;;;;;20.92;100.00;100340.24;105376;1267;73235;-75
2023/08/16 00:54:33;;;;;;;5.50;3.60;;;;;;;20.91;100.00;100340.98;105285;1267;71693;-76
2023/08/16 00:57:00;;;;;;;7.20;4.40;;;;;;;20.90;100.00;100342.34;105314;1269;72422;-75
2023/08/16 00:59:27;;;;;;;5.60;3.70;;;;;;;20.88;100.00;100340.32;105305;1269;61260;-75
2023/08/16 01:01:54;;;;;;;4.60;4.00;;;;;;;20.86;100.00;100344.39;106174;1269;61335;-74
2023/08/16 01:04:20;;;;;;;5.80;4.60;;;;;;;20.82;100.00;100343.88;105041;1269;73607;-76
2023/08/16 01:06:48;;;;;;;6.60;4.00;;;;;;;20.80;100.00;100348.13;105450;1267;71405;-76
2023/08/16 01:09:15;;;;;;;6.10;4.10;;;;;;;20.78;100.00;100350.04;105711;1267;72806;-75
2023/08/16 01:11:45;;;;;;;4.50;3.70;;;;;;;20.74;100.00;100352.73;105140;1271;1002469;-76
2023/08/16 01:14:19;;;;;;;4.60;3.80;;;;;;;20.73;100.00;100354.98;105397;1268;61228;-75
2023/08/16 01:16:46;;;;;;;5.70;3.60;;;;;;;20.71;100.00;100352.27;106082;1268;73216;-76
2023/08/16 01:19:27;;;;;;;5.00;4.30;;;;;;;20.67;100.00;100352.35;105260;1269;71009;-76
2023/08/16 01:22:26;;;;;;;4.60;4.20;;;;;;;20.64;100.00;100353.38;105884;1267;71343;-74
2023/08/16 01:25:14;;;;;;;5.70;4.00;;;;;;;20.62;100.00;100353.69;105602;1269;61218;-75
2023/08/16 01:27:41;;;;;;;4.90;4.10;;;;;;;20.61;100.00;100351.98;105325;1267;60365;-74
2023/08/16 01:30:09;;;;;;;4.40;4.00;;;;;;;20.59;100.00;100353.50;105314;1267;74535;-74
2023/08/16 01:32:36;;;;;;;7.20;4.30;;;;;;;20.56;100.00;100353.88;105365;1271;70598;-74
2023/08/16 01:35:04;;;;;;;8.90;4.30;;;;;;;20.54;100.00;100354.35;105311;1271;72443;-75
2023/08/16 01:37:30;;;;;;;4.90;4.30;;;;;;;20.52;100.00;100353.40;105598;1271;61401;-75
2023/08/16 01:40:00;;;;;;;5.30;4.30;;;;;;;20.50;100.00;100350.87;105666;1269;61282;-75
2023/08/16 01:42:28;;;;;;;4.10;3.80;;;;;;;20.47;100.00;100346.79;105462;1269;74709;-75
2023/08/16 01:44:56;;;;;;;8.30;3.70;;;;;;;20.46;100.00;100345.45;105712;1269;70947;-75
2023/08/16 01:47:23;;;;;;;4.30;3.90;;;;;;;20.43;100.00;100344.35;105292;1269;72537;-74
2023/08/16 01:49:50;;;;;;;4.30;3.70;;;;;;;20.41;100.00;100344.30;105533;1267;61298;-75
2023/08/16 01:52:16;;;;;;;4.60;3.90;;;;;;;20.40;100.00;100340.63;105298;1267;61267;-75
2023/08/16 01:54:43;;;;;;;4.00;3.60;;;;;;;20.38;100.00;100341.60;105701;1271;74466;-75
2023/08/16 01:57:09;;;;;;;3.80;3.50;;;;;;;20.37;100.00;100338.52;105345;1269;68965;-75
2023/08/16 01:59:36;;;;;;;6.20;3.90;;;;;;;20.34;100.00;100338.13;105252;1274;72611;-75
2023/08/16 02:02:03;;;;;;;4.80;4.10;;;;;;;20.33;100.00;100337.16;105245;1268;61274;-76
2023/08/16 02:04:30;;;;;;;7.60;4.10;;;;;;;20.30;100.00;100336.93;105577;1267;61170;-75
2023/08/16 02:06:57;;;;;;;11.90;3.80;;;;;;;20.29;100.00;100336.67;105373;1271;74688;-75
2023/08/16 02:09:23;;;;;;;4.40;3.80;;;;;;;20.26;100.00;100335.28;105737;1271;69617;-75
2023/08/16 02:11:50;;;;;;;5.80;3.90;;;;;;;20.24;100.00;100336.30;104943;1268;72319;-75
2023/08/16 02:14:17;;;;;;;4.30;3.90;;;;;;;20.22;100.00;100339.56;105284;1269;61325;-75
2023/08/16 02:16:43;;;;;;;5.60;3.90;;;;;;;20.21;100.00;100345.52;105262;1267;61276;-76
2023/08/16 02:19:10;;;;;;;4.80;3.80;;;;;;;20.19;100.00;100350.09;105406;1272;73402;-76
2023/08/16 02:21:37;;;;;;;5.60;4.00;;;;;;;20.17;100.00;100347.55;105574;1267;70885;-74
2023/08/16 02:24:04;;;;;;;4.20;3.90;;;;;;;20.16;100.00;100352.42;105713;1268;71281;-75
2023/08/16 02:26:31;;;;;;;5.40;3.80;;;;;;;20.14;100.00;100353.27;105752;1268;61246;-74
2023/08/16 02:28:57;;;;;;;4.80;4.20;;;;;;;20.11;100.00;100354.67;105677;1268;61387;-75
2023/08/16 02:31:24;;;;;;;6.60;4.80;;;;;;;20.09;100.00;100356.06;105656;1269;61267;-75
2023/08/16 02:33:51;;;;;;;10.20;4.40;;;;;;;20.08;100.00;100359.16;105310;1269;69948;-75
2023/08/16 02:36:17;;;;;;;4.30;3.90;;;;;;;20.07;100.00;100358.00;105407;1268;72694;-74
2023/08/16 02:38:44;;;;;;;7.00;4.10;;;;;;;20.04;100.00;100362.75;105883;1266;61400;-76
2023/08/16 02:41:11;;;;;;;5.10;4.00;;;;;;;20.04;100.00;100362.78;105666;1271;59844;-76
2023/08/16 02:43:38;;;;;;;5.50;4.20;;;;;;;20.02;100.00;100364.09;105351;1269;73519;-76
2023/08/16 02:46:04;;;;;;;5.30;3.70;;;;;;;20.02;100.00;100366.98;105749;1271;71161;-76
2023/08/16 02:48:31;;;;;;;6.20;4.00;;;;;;;20.02;100.00;100368.77;105334;1271;71033;-75
2023/08/16 02:50:59;;;;;;;6.00;4.30;;;;;;;20.00;100.00;100371.91;105536;1267;61315;-75
2023/08/16 02:53:26;;;;;;;6.00;5.00;;;;;;;19.97;100.00;100371.73;105471;1271;61189;-76
2023/08/16 02:55:53;;;;;;;9.90;6.20;;;;;;;19.97;100.00;100376.02;104954;1269;72833;-75
2023/08/16 02:58:19;;;;;;;6.00;4.80;;;;;;;19.97;100.00;100379.94;105303;1267;70017;-75
2023/08/16 03:00:50;;;;;;;5.90;4.80;;;;;;;19.97;100.00;100381.88;105302;1271;73154;-74
2023/08/16 03:03:17;;;;;;;5.90;4.50;;;;;;;19.98;100.00;100382.73;105351;1270;60905;-75
2023/08/16 03:05:44;;;;;;;5.20;4.60;;;;;;;19.98;100.00;100385.40;105332;1269;61422;-74
2023/08/16 03:08:11;;;;;;;5.30;4.70;;;;;;;19.98;100.00;100382.73;105739;1267;73204;-75
2023/08/16 03:10:37;;;;;;;4.70;3.70;;;;;;;19.97;100.00;100388.27;105753;1268;71154;-77
2023/08/16 03:13:04;;;;;;;5.90;4.30;;;;;;;19.97;100.00;100388.98;105694;1267;73253;-75
2023/08/16 03:15:31;;;;;;;7.50;4.40;;;;;;;19.98;100.00;100388.42;105123;1271;61200;-75
2023/08/16 03:17:58;;;;;;;5.90;4.60;;;;;;;19.98;100.00;100390.55;106101;1268;61249;-77
2023/08/16 03:20:25;;;;;;;5.80;4.90;;;;;;;19.99;100.00;100389.63;106073;1271;74571;-76
2023/08/16 03:22:53;;;;;;;7.20;5.10;;;;;;;19.98;100.00;100392.14;105724;1268;70953;-74
2023/08/16 03:25:20;;;;;;;7.80;4.70;;;;;;;19.97;100.00;100397.91;105017;1269;72380;-75
2023/08/16 03:27:49;;;;;;;7.10;5.30;;;;;;;19.97;100.00;100399.16;105346;1269;62271;-74
2023/08/16 03:30:16;;;;;;;7.10;5.60;;;;;;;19.97;100.00;100400.91;105256;1269;61179;-75
2023/08/16 03:32:43;;;;;;;7.40;5.70;;;;;;;19.99;100.00;100406.69;104992;1271;74671;-75
2023/08/16 03:35:09;;;;;;;5.80;5.30;;;;;;;20.01;100.00;100407.84;105322;1269;69630;-75
2023/08/16 03:37:36;;;;;;;10.20;5.80;;;;;;;20.03;100.00;100406.64;105618;1267;61329;-75
2023/08/16 03:40:06;;;;;;;7.60;6.00;;;;;;;20.07;100.00;100411.63;105476;1267;61821;-73
2023/08/16 03:42:32;;;;;;;11.20;6.30;;;;;;;20.10;100.00;100413.00;105426;1271;61184;-75
2023/08/16 03:44:59;;;;;;;7.90;6.30;;;;;;;20.14;100.00;100410.29;105288;1269;74478;-74
2023/08/16 03:47:26;;;;;;;9.90;6.40;;;;;;;20.18;100.00;100414.15;105637;1271;71312;-76
2023/08/16 03:49:54;;;;;;;6.70;5.90;;;;;;;20.22;100.00;100413.71;105765;1267;71631;-80
2023/08/16 03:52:21;;;;;;;8.40;6.40;;;;;;;20.28;100.00;100404.63;105464;1269;61945;-74
2023/08/16 03:54:50;;;;;;;9.20;6.30;;;;;;;20.34;100.00;100408.66;105600;1272;61277;-75
2023/08/16 03:57:17;;;;;;;8.10;5.70;;;;;;;20.41;100.00;100404.68;105674;1269;74385;-75
2023/08/16 03:59:44;;;;;;;7.40;5.10;;;;;;;20.49;100.00;100402.11;105329;1271;71041;-75
2023/08/16 04:02:10;;;;;;;7.60;6.30;;;;;;;20.56;100.00;100405.05;105324;1267;71521;-75
2023/08/16 04:04:37;;;;;;;7.90;5.50;;;;;;;20.63;100.00;100406.77;105395;1267;61285;-76
2023/08/16 04:07:04;;;;;;;13.90;6.70;;;;;;;20.70;100.00;100397.95;105305;1271;61280;-75
2023/08/16 04:09:30;;;;;;;8.00;6.20;;;;;;;20.78;100.00;100403.52;106015;1268;75273;-75
2023/08/16 04:11:57;;;;;;;19.00;7.20;;;;;;;20.85;100.00;100408.80;105306;1269;71564;-75
2023/08/16 04:14:26;;;;;;;12.60;7.30;;;;;;;20.93;100.00;100417.73;105019;1271;72535;-76
2023/08/16 04:16:52;;;;;;;14.50;7.90;;;;;;;21.00;100.00;100422.80;105067;1269;61906;-76
2023/08/16 04:19:19;;;;;;;8.90;7.20;;;;;;;21.08;100.00;100426.75;105918;1271;61226;-75
2023/08/16 04:21:46;;;;;;;11.30;7.10;;;;;;;21.17;100.00;100434.42;105114;1271;74676;-74
2023/08/16 04:24:13;;;;;;;8.90;7.30;;;;;;;21.25;100.00;100434.08;105078;1269;61454;-75
2023/08/16 04:26:40;;;;;;;8.90;7.00;;;;;;;21.34;100.00;100434.71;106087;1268;71082;-76
2023/08/16 04:29:07;;;;;;;8.40;7.10;;;;;;;21.43;100.00;100434.52;105497;1269;61867;-77
2023/08/16 04:31:34;;;;;;;9.50;7.10;;;;;;;21.52;100.00;100435.20;105756;1267;61339;-75
2023/08/16 04:34:01;;;;;;;14.30;7.00;;;;;;;21.62;100.00;100432.95;105387;1272;74799;-75
2023/08/16 04:36:28;;;;;;;11.70;6.70;;;;;;;21.72;100.00;100436.21;105868;1272;71338;-76
2023/08/16 04:38:55;;;;;;;13.90;7.20;;;;;;;21.82;100.00;100438.41;105756;1268;70809;-77
2023/08/16 04:41:21;;;;;;;12.70;7.40;;;;;;;21.91;100.00;100438.52;105412;1271;61276;-77
2023/08/16 04:43:48;;;;;;;9.80;7.00;;;;;;;22.00;100.00;100439.33;105378;1267;61310;-74
2023/08/16 04:46:15;;;;;;;14.00;7.50;;;;;;;22.10;100.00;100442.27;104989;1269;73135;-76
2023/08/16 04:48:42;;;;;;;15.60;7.40;;;;;;;22.17;100.00;100444.26;105413;1272;71107;-75
2023/08/16 04:51:08;;;;;;;13.10;7.00;;;;;;;22.24;100.00;100442.90;105326;1272;72479;-76
2023/08/16 04:53:35;;;;;;;9.30;6.40;;;;;;;22.31;100.00;100441.02;105476;1270;61779;-76
2023/08/16 04:56:02;;;;;;;13.90;6.80;;;;;;;22.37;100.00;100434.17;105851;1271;61667;-76
2023/08/16 04:58:29;;;;;;;12.40;6.90;;;;;;;22.46;100.00;100435.71;105406;1269;74625;-75
2023/08/16 05:00:56;;;;;;;12.70;6.50;;;;;;;22.52;100.00;100437.05;105772;1268;71216;-77
2023/08/16 05:03:23;;;;;;;13.30;5.90;;;;;;;22.59;100.00;100432.98;105672;1270;72830;-76
2023/08/16 05:05:56;;;;;;;9.90;5.90;;;;;;;22.66;100.00;100430.35;105854;1271;61302;-78
2023/08/16 05:08:22;;;;;;;7.00;5.10;;;;;;;22.73;100.00;100424.30;105871;1269;61145;-75
2023/08/16 05:10:49;;;;;;;7.50;5.50;;;;;;;22.79;100.00;100422.98;105294;1273;74674;-76
2023/08/16 05:13:17;;;;;;;11.60;5.40;;;;;;;22.86;100.00;100420.55;105036;1268;71171;-75
2023/08/16 05:15:44;;;;;;;8.50;5.40;;;;;;;22.92;100.00;100412.95;105186;1271;72711;-75
2023/08/16 05:18:11;;;;;;;9.50;5.40;;;;;;;22.99;100.00;100414.63;105829;1269;59671;-78
2023/08/16 05:20:38;;;;;;;13.10;5.40;;;;;;;23.06;100.00;100411.96;105464;1267;60019;-75
2023/08/16 05:23:05;;;;;;;14.10;5.70;;;;;;;23.14;100.00;100417.34;106088;1267;61375;-73
2023/08/16 05:25:31;;;;;;;8.50;5.30;;;;;;;23.21;100.00;100415.75;105136;1269;61427;-75
2023/08/16 05:27:58;;;;;;;11.60;4.80;;;;;;;23.28;100.00;100416.85;105477;1271;72350;-75
2023/08/16 05:30:25;;;;;;;12.00;5.60;;;;;;;23.36;100.00;100415.35;105729;1267;61365;-76
2023/08/16 05:32:55;;;;;;;7.40;4.90;;;;;;;23.45;100.00;100415.45;105609;1268;61372;-75
2023/08/16 05:35:22;;;;;;;10.30;5.70;;;;;;;23.52;100.00;100415.61;106314;1267;74686;-76
2023/08/16 05:37:53;;;;;;;17.00;5.20;;;;;;;23.59;100.00;100417.23;105882;1269;70037;-76
2023/08/16 05:40:20;;;;;;;12.60;5.20;;;;;;;23.65;100.00;100414.25;105382;1269;72616;-75
2023/08/16 05:42:46;;;;;;;9.50;4.80;;;;;;;23.71;100.00;100410.42;105774;1268;61375;-75
2023/08/16 05:45:13;;;;;;;8.70;4.90;;;;;;;23.79;100.00;100410.73;104965;1272;1003107;-75
2023/08/16 05:47:40;;;;;;;5.20;4.60;;;;;;;23.85;100.00;100412.27;106260;1269;74705;-78
2023/08/16 05:50:07;;;;;;;7.70;4.60;;;;;;;23.93;100.00;100412.77;105393;1267;70908;-75
2023/08/16 05:52:35;;;;;;;6.30;4.60;;;;;;;24.00;100.00;100417.58;105492;1272;74127;-75
2023/08/16 05:55:01;;;;;;;9.10;4.90;;;;;;;24.06;100.00;100417.44;105076;1271;61357;-76
2023/08/16 05:57:28;;;;;;;5.60;4.70;;;;;;;24.13;100.00;100415.30;105419;1269;61270;-75
2023/08/16 05:59:54;;;;;;;7.40;4.30;;;;;;;24.19;100.00;100416.65;105540;1271;73586;-76
2023/08/16 06:02:23;;;;;;;9.60;5.70;;;;;;;24.25;100.00;100417.44;105165;1271;70768;-75
2023/08/16 06:04:50;;;;;;;8.10;4.60;;;;;;;24.31;100.00;100417.67;105025;1269;72690;-75
2023/08/16 06:07:16;;;;;;;8.40;4.70;;;;;;;24.39;100.00;100417.45;104962;1271;61319;-75
2023/08/16 06:09:43;;;;;;;6.10;5.30;;;;;;;24.48;100.00;100416.20;105653;1269;61192;-75
2023/08/16 06:12:09;;;;;;;6.30;5.00;;;;;;;24.58;100.00;100420.27;105832;1267;60442;-75
2023/08/16 06:14:36;;;;;;;11.30;6.10;;;;;;;24.70;100.00;100421.15;105468;1271;69707;-75
2023/08/16 06:17:05;;;;;;;6.90;4.90;;;;;;;24.82;100.00;100415.49;105780;1271;72614;-76
2023/08/16 06:19:32;;;;;;;10.10;5.10;;;;;;;24.95;100.00;100413.40;105584;1271;61362;-76
2023/08/16 06:21:59;;;;;;;8.10;4.80;;;;;;;25.08;100.00;100410.70;105197;1271;61372;-75
2023/08/16 06:24:26;;;;;;;5.20;4.70;;;;;;;25.20;100.00;100405.63;105617;1271;73551;-75
2023/08/16 06:26:53;;;;;;;8.40;4.80;;;;;;;25.31;100.00;100407.80;105433;1271;69773;-75
2023/08/16 06:29:20;;;;;;;5.60;4.30;;;;;;;25.43;100.00;100404.86;105440;1267;71104;-75
2023/08/16 06:31:48;;;;;;;7.40;4.60;;;;;;;25.52;100.00;100403.34;105533;1271;62896;-75
2023/08/16 06:34:16;;;;;;;5.50;4.70;;;;;;;25.61;100.00;100403.21;105275;1271;61263;-75
2023/08/16 06:36:43;;;;;;;12.40;5.20;;;;;;;25.69;100.00;100401.61;105467;1271;74594;-75
2023/08/16 06:39:11;;;;;;;6.20;4.40;;;;;;;25.79;100.00;100399.85;105445;1268;70971;-77
2023/08/16 06:41:38;;;;;;;11.50;4.60;;;;;;;25.90;100.00;100393.21;105143;1269;72702;-75
2023/08/16 06:44:05;;;;;;;8.20;4.50;;;;;;;25.99;100.00;100393.91;105108;1267;61334;-75
2023/08/16 06:46:32;;;;;;;4.30;3.90;;;;;;;26.07;100.00;100392.48;105640;1267;61277;-75
2023/08/16 06:49:00;;;;;;;5.70;4.00;;;;;;;26.15;100.00;100386.65;105988;1268;74504;-75
2023/08/16 06:51:27;;;;;;;8.10;3.90;;;;;;;26.22;100.00;100392.34;106203;1271;71122;-74
2023/08/16 06:53:54;;;;;;;9.80;4.70;;;;;;;26.27;100.00;100392.76;105680;1267;72574;-74
2023/08/16 06:56:21;;;;;;;7.80;3.80;;;;;;;26.34;100.00;100390.73;105537;1269;61297;-74
2023/08/16 06:58:49;;;;;;;9.20;4.10;;;;;;;26.43;100.00;100388.90;105344;1268;61179;-75
2023/08/16 07:01:15;;;;;;;5.70;3.60;;;;;;;26.51;100.00;100389.75;105927;1272;74546;-75
2023/08/16 07:03:42;;;;;;;11.00;3.80;;;;;;;26.59;100.00;100383.10;105589;1269;71479;-75
2023/08/16 07:06:09;;;;;;;10.30;4.60;;;;;;;26.68;100.00;100380.91;105950;1267;71211;-75
2023/08/16 07:08:36;;;;;;;6.80;3.80;;;;;;;26.75;100.00;100371.87;105232;1269;61315;-76
2023/08/16 07:11:03;;;;;;;10.10;4.40;;;;;;;26.81;100.00;100374.04;105266;1270;61379;-74
2023/08/16 07:13:29;;;;;;;7.80;4.00;;;;;;;26.88;100.00;100373.77;105282;1271;73474;-75
2023/08/16 07:15:56;;;;;;;11.00;4.40;;;;;;;26.95;100.00;100370.58;105490;1271;61476;-76
2023/08/16 07:18:23;;;;;;;11.70;5.00;;;;;;;27.02;100.00;100367.08;105178;1267;72550;-75
2023/08/16 07:20:50;;;;;;;15.10;4.80;;;;;;;27.11;100.00;100364.91;105530;1271;61376;-75
2023/08/16 07:23:17;;;;;;;9.50;4.40;;;;;;;27.19;100.00;100366.35;105324;1272;61648;-74
2023/08/16 07:25:44;;;;;;;12.50;4.60;;;;;;;27.28;100.00;100369.13;106146;1267;74462;-75
2023/08/16 07:28:10;;;;;;;13.60;4.90;;;;;;;27.39;100.00;100367.73;105955;1271;71216;-77
2023/08/16 07:30:37;;;;;;;7.50;4.70;;;;;;;27.49;100.00;100367.36;105534;1272;71158;-75
2023/08/16 07:33:04;;;;;;;8.10;4.40;;;;;;;27.57;100.00;100356.13;105833;1271;61326;-76
2023/08/16 07:35:31;;;;;;;8.50;4.50;;;;;;;27.69;100.00;100359.80;105636;1271;61210;-76
2023/08/16 07:38:00;;;;;;;6.70;4.10;;;;;;;27.80;100.00;100360.86;105274;1271;74745;-76
2023/08/16 07:40:26;;;;;;;8.30;4.80;;;;;;;27.92;100.00;100361.20;105604;1271;70814;-74
2023/08/16 07:42:54;;;;;;;12.20;4.20;;;;;;;28.05;100.00;100361.67;106182;1267;64055;-75
2023/08/16 07:45:21;;;;;;;7.40;4.40;;;;;;;28.17;100.00;100356.19;105609;1267;61297;-76
2023/08/16 07:47:48;;;;;;;13.40;4.40;;;;;;;28.27;100.00;100353.62;105580;1270;61172;-75
2023/08/16 07:50:14;;;;;;;9.30;4.20;;;;;;;28.35;100.00;100352.98;105436;1271;65799;-76
2023/08/16 07:52:41;;;;;;;5.80;4.30;;;;;;;28.44;100.00;100351.45;105480;1271;62399;-76
2023/08/16 07:55:08;;;;;;;6.80;4.20;;;;;;;28.53;100.00;100348.38;105310;1267;64128;-75
2023/08/16 07:57:35;;;;;;;10.30;4.00;;;;;;;28.64;100.00;100344.48;106101;1267;61306;-76
2023/08/16 08:00:01;;;;;;;7.00;4.20;;;;;;;28.76;100.00;100344.98;105194;1271;61167;-76
2023/08/16 08:02:40;;;;;;;7.80;4.10;;;;;;;28.85;100.00;100343.44;105075;1270;66094;-77
2023/08/16 08:05:26;;;;;;;7.90;4.20;;;;;;;28.94;100.00;100337.00;106373;1267;62398;-75
2023/08/16 08:07:53;;;;;;;8.90;4.30;;;;;;;29.02;100.00;100334.39;105676;1273;62817;-76
2023/08/16 08:10:20;;;;;;;10.70;3.80;;;;;;;29.10;100.00;100332.48;105429;1271;61277;-75
2023/08/16 08:12:47;;;;;;;8.30;4.10;;;;;;;29.18;100.00;100332.08;106104;1271;61385;-75
2023/08/16 08:15:14;;;;;;;9.00;4.70;;;;;;;29.24;100.00;100327.88;105837;1267;66491;-76
2023/08/16 08:17:40;;;;;;;8.60;4.10;;;;;;;29.31;100.00;100329.60;105873;1271;61320;-77
2023/08/16 08:20:08;;;;;;;4.50;4.00;;;;;;;29.40;100.00;100327.58;105839;1267;63729;-75
2023/08/16 08:22:34;;;;;;;9.60;4.10;;;;;;;29.48;100.00;100325.48;105658;1267;61382;-77
2023/08/16 08:25:01;;;;;;;8.80;4.10;;;;;;;29.58;100.00;100328.95;106304;1271;61276;-74
2023/08/16 08:27:28;;;;;;;7.30;3.90;;;;;;;29.69;100.00;100325.58;105520;1272;66066;-75
2023/08/16 08:29:55;;;;;;;7.10;3.90;;;;;;;29.78;100.00;100322.08;105554;1271;62533;-77
2023/08/16 08:32:22;;;;;;;8.70;3.70;;;;;;;29.88;100.00;100315.14;106135;1273;63805;-75
2023/08/16 08:34:49;;;;;;;10.50;4.20;;;;;;;29.97;100.00;100315.05;105904;1267;61347;-76
2023/08/16 08:37:16;;;;;;;8.50;4.00;;;;;;;30.05;100.00;100316.81;105745;1273;61293;-75
2023/08/16 08:39:42;;;;;;;6.60;3.90;;;;;;;30.11;100.00;100315.84;105711;1271;66054;-76
2023/08/16 08:42:09;;;;;;;12.00;4.40;;;;;;;30.18;100.00;100315.63;105780;1271;62733;-76
2023/08/16 08:44:37;;;;;;;10.80;4.30;;;;;;;30.26;100.00;100312.27;105715;1272;64189;-76
2023/08/16 08:47:06;;;;;;;9.90;4.00;;;;;;;30.35;100.00;100306.58;106183;1272;61377;-75
2023/08/16 08:49:42;;;;;;;4.20;3.60;;;;;;;30.46;100.00;100303.52;105776;1267;61367;-75
2023/08/16 08:52:09;;;;;;;10.40;3.50;;;;;;;30.55;100.00;100299.86;105721;1271;65916;-76
2023/08/16 08:54:36;;;;;;;6.00;3.80;;;;;;;30.62;100.00;100297.95;105474;1267;62232;-75
2023/08/16 08:57:03;;;;;;;7.40;3.40;;;;;;;30.69;100.00;100300.45;105760;1272;64152;-75
2023/08/16 08:59:32;;;;;;;9.30;4.60;;;;;;;30.77;100.00;100295.99;105766;1273;61378;-75
2023/08/16 09:02:00;;;;;;;9.20;6.10;;;;;;;30.85;100.00;100291.05;105886;1267;61314;-75
2023/08/16 09:04:29;;;;;;;5.70;3.60;;;;;;;30.92;100.00;100291.33;105699;1267;67911;-75
2023/08/16 09:06:56;;;;;;;9.00;3.40;;;;;;;30.99;100.00;100295.30;105809;1267;62504;-76
2023/08/16 09:09:23;;;;;;;5.60;3.90;;;;;;;31.05;100.00;100295.06;105327;1271;62837;-75
2023/08/16 09:11:49;;;;;;;6.90;3.60;;;;;;;31.13;100.00;100292.94;105159;1267;61286;-75
2023/08/16 09:14:16;;;;;;;7.50;3.30;;;;;;;31.19;100.00;100293.70;105337;1267;61288;-75
2023/08/16 09:16:42;;;;;;;5.90;3.30;;;;;;;31.24;100.00;100286.02;105623;1274;61397;-75
2023/08/16 09:19:15;;;;;;;8.80;3.30;;;;;;;31.30;100.00;100286.09;106024;1267;62512;-76
2023/08/16 09:21:42;;;;;;;9.60;3.30;;;;;;;31.36;100.00;100290.51;105286;1267;63958;-76
2023/08/16 09:24:09;;;;;;;6.60;2.80;;;;;;;31.41;100.00;100287.14;105960;1270;61362;-76
2023/08/16 09:26:37;;;;;;;8.60;3.10;;;;;;;31.39;100.00;100288.16;106081;1267;61289;-75
2023/08/16 09:29:04;;;;;;;6.50;2.70;;;;;;;31.40;100.00;100288.64;105832;1267;66149;-75
2023/08/16 09:31:37;;;;;;;6.00;2.90;;;;;;;31.49;100.00;100287.50;105708;1267;62603;-75
2023/08/16 09:34:05;;;;;;;3.90;2.80;;;;;;;31.61;100.00;100289.06;106016;1272;63896;-76
2023/08/16 09:36:34;;;;;;;12.70;4.40;;;;;;;31.72;100.00;100285.90;105843;1269;61379;-76
2023/08/16 09:39:08;;;;;;;5.40;3.30;;;;;;;31.81;100.00;100283.95;105783;1272;59902;-76
2023/08/16 09:41:38;;;;;;;3.20;2.80;;;;;;;31.91;100.00;100280.29;105989;1267;64778;-75
2023/08/16 09:44:07;;;;;;;4.70;3.00;;;;;;;32.04;100.00;100280.33;106362;1267;62246;-75
2023/08/16 09:46:34;;;;;;;3.70;3.00;;;;;;;32.17;100.00;100275.17;105391;1272;63933;-76
2023/08/16 09:49:11;;;;;;;5.20;3.50;;;;;;;32.31;100.00;100277.81;106524;1267;61276;-75
2023/08/16 09:51:40;;;;;;;4.70;2.90;;;;;;;32.38;100.00;100278.06;106023;1267;59459;-75
2023/08/16 09:54:13;;;;;;;3.90;2.90;;;;;;;32.43;100.00;100275.52;106371;1267;65988;-75
2023/08/16 09:56:41;;;;;;;7.80;2.80;;;;;;;32.44;100.00;100270.27;105886;1271;62218;-76
2023/08/16 09:59:28;;;;;;;6.30;2.50;;;;;;;32.35;100.00;100268.96;106205;1267;64089;-76
2023/08/16 10:01:58;;;;;;;11.70;2.60;;;;;;;32.26;100.00;100272.23;105645;1267;61329;-75
2023/08/16 10:04:28;;;;;;;5.10;2.90;;;;;;;32.17;100.00;100276.67;105610;1273;61378;-75
2023/08/16 10:06:58;;;;;;;4.90;2.60;;;;;;;32.12;100.00;100272.67;105830;1267;65994;-74
2023/08/16 10:09:28;;;;;;;5.40;3.10;;;;;;;32.16;100.00;100265.27;105424;1267;62481;-74
2023/08/16 10:11:55;;;;;;;8.90;3.10;;;;;;;32.23;100.00;100262.15;105845;1271;64350;-75
2023/08/16 10:14:22;;;;;;;6.60;2.80;;;;;;;32.29;100.00;100267.16;106143;1267;61189;-76
2023/08/16 10:16:49;;;;;;;4.80;2.40;;;;;;;32.32;100.00;100263.73;106089;1268;61290;-76
2023/08/16 10:19:16;;;;;;;7.60;3.30;;;;;;;32.29;100.00;100266.46;105927;1267;64817;-76
2023/08/16 10:21:43;;;;;;;5.00;2.50;;;;;;;32.21;100.00;100268.59;106288;1270;62227;-76
2023/08/16 10:24:12;;;;;;;6.70;2.80;;;;;;;32.19;100.00;100266.45;105782;1271;64356;-75
2023/08/16 10:26:39;;;;;;;4.20;2.50;;;;;;;32.25;100.00;100259.55;106097;1267;61308;-76
2023/08/16 10:29:08;;;;;;;3.20;2.50;;;;;;;32.37;100.00;100251.30;105834;1267;61210;-76
2023/08/16 10:31:39;;;;;;;3.20;2.40;;;;;;;32.51;100.00;100256.61;105990;1267;65909;-76
2023/08/16 10:34:07;;;;;;;5.10;2.40;;;;;;;32.65;100.00;100253.43;105930;1271;61443;-75
2023/08/16 10:36:33;;;;;;;3.90;2.40;;;;;;;32.73;100.00;100245.02;105968;1268;64073;-75
2023/08/16 10:39:00;;;;;;;2.30;2.10;;;;;;;32.74;100.00;100247.76;106296;1267;61293;-75
2023/08/16 10:41:27;;;;;;;5.40;2.70;;;;;;;32.75;100.00;100248.70;105926;1267;61397;-77
2023/08/16 10:43:54;;;;;;;2.70;2.20;;;;;;;32.80;100.00;100245.48;105719;1267;64569;-75
2023/08/16 10:46:43;;;;;;;3.70;2.40;;;;;;;32.88;100.00;100245.19;105781;1267;62321;-75
2023/08/16 10:49:10;;;;;;;2.60;2.20;;;;;;;33.04;100.00;100247.77;105855;1267;63743;-75
2023/08/16 10:51:44;;;;;;;2.00;1.90;;;;;;;33.19;100.00;100244.89;106283;1271;61234;-74
2023/08/16 10:54:11;;;;;;;4.80;2.80;;;;;;;33.34;100.00;100244.89;105705;1271;61276;-77
2023/08/16 10:56:47;;;;;;;3.00;2.60;;;;;;;33.46;100.00;100241.90;105879;1270;65871;-75
2023/08/16 10:59:14;;;;;;;2.20;2.00;;;;;;;33.57;100.00;100236.40;106478;1267;62207;-75
2023/08/16 11:01:46;;;;;;;3.30;1.90;;;;;;;33.55;100.00;100230.79;106527;1267;63782;-76
2023/08/16 11:04:13;;;;;;;3.50;2.00;;;;;;;33.56;100.00;100230.98;106497;1272;61305;-75
2023/08/16 11:06:40;;;;;;;4.00;2.00;;;;;;;33.64;100.00;100227.83;105993;1267;61248;-75
2023/08/16 11:09:23;;;;;;;3.90;2.10;;;;;;;33.73;100.00;100224.83;105814;1271;66087;-77